Time;durP1;ratioP1;P1;durP2;ratioP2;P2;SDS_P1;SDS_P2;PMS_P1;PMS_P2;Temp;Humidity;BMP_temperature;BMP_pressure;BME280_temperature;BME280_humidity;BME280_pressure;Samples;Min_cycle;Max_cycle;Signal;HPM_P1;HPM_P2
2021/05/13 00:00:06;;;;;;;11.43;7.28;;;;;;;7.45;84.33;98741.78;4991597;28;20022;-62
2021/05/13 00:02:32;;;;;;;11.55;8.75;;;;;;;7.48;85.34;98735.19;4991908;28;20031;-62
2021/05/13 00:04:57;;;;;;;10.38;7.95;;;;;;;7.46;83.84;98731.94;4991941;28;20366;-62
2021/05/13 00:07:22;;;;;;;11.52;8.32;;;;;;;7.38;83.87;98743.75;4992712;28;20535;-62
2021/05/13 00:09:49;;;;;;;14.15;8.68;;;;;;;7.27;85.08;98744.59;5010992;28;20049;-62
2021/05/13 00:12:36;;;;;;;12.15;8.98;;;;;;;7.22;84.51;98736.50;5012417;28;20504;-62
2021/05/13 00:15:05;;;;;;;12.15;9.15;;;;;;;7.20;85.64;98738.56;5012290;28;20065;-62
2021/05/13 00:17:31;;;;;;;11.32;9.77;;;;;;;7.28;85.31;98739.00;5012481;28;20060;-62
2021/05/13 00:19:57;;;;;;;12.65;9.43;;;;;;;7.24;85.38;98729.88;5012734;28;20030;-62
2021/05/13 00:22:24;;;;;;;11.48;9.85;;;;;;;7.26;85.60;98730.47;5012045;28;20326;-62
2021/05/13 00:24:49;;;;;;;13.85;9.57;;;;;;;7.27;85.66;98728.59;5012600;28;20109;-62
2021/05/13 00:27:15;;;;;;;12.95;9.55;;;;;;;7.31;85.37;98730.56;5011953;28;20396;-62
2021/05/13 00:29:40;;;;;;;10.43;7.93;;;;;;;7.08;82.94;98736.69;5012611;28;20461;-61
2021/05/13 00:32:06;;;;;;;13.40;8.23;;;;;;;6.97;84.07;98729.53;5012237;28;20034;-61
2021/05/13 00:34:31;;;;;;;10.20;8.32;;;;;;;6.96;84.80;98733.22;5012557;28;20076;-61
2021/05/13 00:36:57;;;;;;;15.43;10.25;;;;;;;7.02;85.80;98728.84;4994571;28;20444;-62
2021/05/13 00:39:22;;;;;;;14.43;9.73;;;;;;;7.09;85.90;98721.53;5012755;28;20029;-62
2021/05/13 00:41:47;;;;;;;12.38;9.20;;;;;;;7.16;84.85;98724.06;5015616;28;20030;-62
2021/05/13 00:44:13;;;;;;;8.88;7.07;;;;;;;6.96;81.66;98729.75;4998258;28;20056;-62
2021/05/13 00:46:39;;;;;;;13.50;6.75;;;;;;;6.75;82.78;98733.78;5015464;28;20077;-62
2021/05/13 00:49:07;;;;;;;9.38;7.50;;;;;;;6.70;83.76;98729.94;5015838;28;20049;-62
2021/05/13 00:51:33;;;;;;;9.57;8.50;;;;;;;6.69;84.41;98732.88;5015348;28;20038;-62
2021/05/13 00:53:58;;;;;;;11.55;8.77;;;;;;;6.72;84.48;98732.41;5015839;28;20088;-62
2021/05/13 00:56:26;;;;;;;12.73;10.13;;;;;;;6.64;85.33;98730.88;5015223;28;20057;-62
2021/05/13 00:58:53;;;;;;;14.13;11.15;;;;;;;6.78;86.39;98736.00;5014452;28;20373;-62
2021/05/13 01:01:21;;;;;;;15.52;11.95;;;;;;;6.89;86.73;98736.00;5015119;28;20034;-62
2021/05/13 01:03:46;;;;;;;17.63;12.15;;;;;;;7.00;86.80;98742.38;5015580;28;20022;-62
2021/05/13 01:06:13;;;;;;;15.25;11.80;;;;;;;6.97;86.10;98740.19;5015144;28;20096;-62
2021/05/13 01:08:39;;;;;;;18.02;11.75;;;;;;;6.95;86.96;98736.13;4997687;28;20045;-62
2021/05/13 01:11:07;;;;;;;21.42;14.57;;;;;;;7.19;85.70;98737.75;5014935;28;20120;-62
2021/05/13 01:13:34;;;;;;;13.40;10.40;;;;;;;6.96;84.34;98743.88;5014276;28;20026;-62
2021/05/13 01:16:23;;;;;;;13.25;7.60;;;;;;;6.67;82.89;98737.59;5014987;28;20038;-61
2021/05/13 01:18:48;;;;;;;10.50;7.35;;;;;;;6.30;82.74;98727.09;5015380;28;20033;-61
2021/05/13 01:21:14;;;;;;;16.05;9.55;;;;;;;6.27;84.58;98724.88;5030065;28;20041;-61
2021/05/13 01:23:39;;;;;;;12.95;9.68;;;;;;;6.47;87.01;98724.59;5014978;28;20030;-62
2021/05/13 01:26:05;;;;;;;10.82;8.10;;;;;;;6.33;83.14;98725.81;5014718;28;20045;-61
2021/05/13 01:28:30;;;;;;;20.77;9.32;;;;;;;5.96;87.45;98721.38;5014962;28;20064;-61
2021/05/13 01:30:56;;;;;;;10.32;8.07;;;;;;;5.67;85.17;98715.00;5014614;28;20483;-62
2021/05/13 01:33:23;;;;;;;10.43;8.68;;;;;;;5.64;86.82;98715.41;4997425;28;20080;-62
2021/05/13 01:35:49;;;;;;;10.18;8.50;;;;;;;5.65;87.13;98717.06;5014278;28;20033;-61
2021/05/13 01:38:15;;;;;;;11.88;9.13;;;;;;;5.66;87.25;98699.25;5014666;28;20380;-62
2021/05/13 01:40:48;;;;;;;13.07;8.90;;;;;;;5.69;87.22;98702.28;5014420;28;20443;-62
2021/05/13 01:43:14;;;;;;;10.45;9.05;;;;;;;5.67;86.69;98698.25;5014938;28;20026;-62
2021/05/13 01:45:40;;;;;;;11.60;9.45;;;;;;;5.69;87.68;98696.97;5029723;28;20044;-62
2021/05/13 01:48:06;;;;;;;11.27;8.70;;;;;;;5.70;87.23;98687.94;5014377;28;20954;-62
2021/05/13 01:50:32;;;;;;;11.75;9.82;;;;;;;5.79;88.01;98691.09;5013960;28;20069;-62
2021/05/13 01:52:58;;;;;;;13.80;10.77;;;;;;;5.89;88.72;98686.09;5013977;28;20026;-61
2021/05/13 01:55:24;;;;;;;11.75;9.52;;;;;;;5.87;87.40;98680.16;5014224;28;20041;-62
2021/05/13 01:57:49;;;;;;;12.23;9.20;;;;;;;5.82;87.00;98675.53;5029923;28;20108;-62
2021/05/13 02:00:15;;;;;;;10.32;8.90;;;;;;;5.83;87.30;98671.81;5014244;28;20487;-62
2021/05/13 02:02:43;;;;;;;12.52;8.50;;;;;;;5.93;88.09;98667.81;5014508;28;20388;-62
2021/05/13 02:05:09;;;;;;;13.27;9.20;;;;;;;6.00;88.24;98665.91;5013901;28;20036;-62
2021/05/13 02:07:35;;;;;;;10.70;8.15;;;;;;;5.90;85.91;98662.94;5014583;28;20452;-62
2021/05/13 02:10:00;;;;;;;12.48;8.00;;;;;;;5.82;86.98;98661.41;5029301;28;20083;-62
2021/05/13 02:12:25;;;;;;;12.90;8.75;;;;;;;5.77;86.60;98662.09;5014063;28;20420;-61
2021/05/13 02:14:51;;;;;;;11.30;8.05;;;;;;;5.73;86.78;98662.75;5014221;28;20495;-62
2021/05/13 02:17:16;;;;;;;11.23;7.93;;;;;;;5.64;86.13;98656.94;5013755;28;20030;-61
2021/05/13 02:19:42;;;;;;;12.20;8.75;;;;;;;5.62;86.31;98654.50;5013992;28;20394;-62
2021/05/13 02:22:07;;;;;;;10.35;8.50;;;;;;;5.66;86.62;98654.84;5013657;28;20045;-62
2021/05/13 02:24:32;;;;;;;10.45;8.63;;;;;;;5.76;87.31;98655.13;5014120;28;20042;-61
2021/05/13 02:26:58;;;;;;;11.48;8.38;;;;;;;5.83;86.29;98655.84;5013525;28;20049;-61
2021/05/13 02:29:23;;;;;;;12.90;8.77;;;;;;;5.79;86.46;98657.38;5013978;28;20049;-61
2021/05/13 02:31:49;;;;;;;10.52;8.70;;;;;;;5.75;86.31;98666.81;5013704;28;20393;-61
2021/05/13 02:34:14;;;;;;;11.27;8.07;;;;;;;5.79;86.02;98661.84;5013690;28;20385;-61
2021/05/13 02:36:39;;;;;;;10.98;8.27;;;;;;;5.67;85.69;98659.16;5012263;28;20152;-61
2021/05/13 02:39:05;;;;;;;12.88;8.52;;;;;;;5.73;86.53;98658.25;5013694;28;20465;-61
2021/05/13 02:41:31;;;;;;;9.82;8.02;;;;;;;5.77;86.38;98662.09;5013302;28;20101;-61
2021/05/13 02:43:56;;;;;;;12.88;8.45;;;;;;;5.69;85.88;98658.91;5013800;28;20033;-61
2021/05/13 02:46:22;;;;;;;11.77;8.30;;;;;;;5.58;85.88;98666.63;5013322;28;20115;-61
2021/05/13 02:48:47;;;;;;;11.27;7.88;;;;;;;5.44;86.70;98669.66;5013633;28;20578;-62
2021/05/13 02:51:12;;;;;;;10.98;8.00;;;;;;;5.50;87.53;98668.78;5012968;28;20060;-61
2021/05/13 02:53:38;;;;;;;11.63;8.63;;;;;;;5.50;87.28;98660.81;5013779;28;20113;-61
2021/05/13 02:56:03;;;;;;;10.27;7.85;;;;;;;5.46;86.89;98664.94;5013112;28;20038;-62
2021/05/13 02:58:29;;;;;;;12.65;8.55;;;;;;;5.37;87.41;98665.25;5013423;28;20084;-62
2021/05/13 03:01:08;;;;;;;9.65;8.32;;;;;;;5.38;87.91;98658.88;5013132;28;20088;-62
2021/05/13 03:03:33;;;;;;;12.68;8.77;;;;;;;5.36;87.97;98655.63;5013171;28;20026;-61
2021/05/13 03:05:59;;;;;;;12.95;8.65;;;;;;;5.31;87.75;98663.47;5012733;28;20374;-62
2021/05/13 03:08:24;;;;;;;11.05;7.68;;;;;;;5.26;87.29;98658.00;5013127;28;20045;-62
2021/05/13 03:10:50;;;;;;;10.35;7.38;;;;;;;5.13;86.58;98658.16;5012767;28;20116;-62
2021/05/13 03:13:22;;;;;;;9.15;7.43;;;;;;;5.05;86.41;98661.09;4995642;28;20073;-62
2021/05/13 03:15:48;;;;;;;10.85;7.30;;;;;;;4.95;87.29;98659.75;5012781;28;20034;-62
2021/05/13 03:18:14;;;;;;;12.30;8.20;;;;;;;4.96;88.15;98661.38;4995440;28;20026;-62
2021/05/13 03:20:42;;;;;;;12.60;7.85;;;;;;;4.91;87.26;98663.88;5012906;28;20565;-62
2021/05/13 03:23:10;;;;;;;9.93;7.80;;;;;;;4.84;87.84;98673.78;5013260;28;20124;-61
2021/05/13 03:25:37;;;;;;;12.73;7.40;;;;;;;4.84;87.58;98662.31;4995413;28;20507;-62
2021/05/13 03:28:09;;;;;;;12.55;9.07;;;;;;;4.81;88.19;98660.91;5012986;28;20032;-62
2021/05/13 03:30:45;;;;;;;14.77;10.15;;;;;;;4.98;89.73;98661.16;5012567;28;20116;-62
2021/05/13 03:33:10;;;;;;;15.02;10.10;;;;;;;5.09;89.75;98663.09;5013179;28;20081;-61
2021/05/13 03:35:36;;;;;;;15.52;9.60;;;;;;;5.27;89.74;98664.16;5012641;28;20042;-62
2021/05/13 03:38:05;;;;;;;15.18;9.10;;;;;;;5.30;89.27;98663.69;4995403;28;20482;-62
2021/05/13 03:40:31;;;;;;;13.18;9.23;;;;;;;5.25;89.52;98653.72;5012600;28;20044;-62
2021/05/13 03:42:59;;;;;;;12.02;8.68;;;;;;;5.19;88.82;98654.59;5012934;28;20477;-61
2021/05/13 03:45:25;;;;;;;11.88;8.57;;;;;;;5.14;89.47;98662.41;5012436;28;20037;-62
2021/05/13 03:47:50;;;;;;;14.02;8.73;;;;;;;5.19;89.24;98660.75;5012795;28;20084;-62
2021/05/13 03:50:16;;;;;;;12.07;9.75;;;;;;;5.12;89.84;98654.69;5012337;28;20091;-63
2021/05/13 03:52:41;;;;;;;10.07;7.75;;;;;;;5.09;89.31;98657.78;5012828;28;20030;-62
2021/05/13 03:55:07;;;;;;;11.05;7.82;;;;;;;5.10;89.06;98653.28;5012094;28;20021;-62
2021/05/13 03:57:33;;;;;;;10.05;7.75;;;;;;;5.17;89.49;98652.19;5012650;28;20080;-61
2021/05/13 03:59:58;;;;;;;13.63;9.20;;;;;;;5.34;89.42;98657.72;5012678;28;20040;-62
2021/05/13 04:02:34;;;;;;;14.40;8.25;;;;;;;5.61;89.39;98649.41;4994668;28;20037;-62
2021/05/13 04:05:00;;;;;;;13.43;8.10;;;;;;;5.65;87.05;98644.47;5012955;28;20022;-62
2021/05/13 04:07:45;;;;;;;10.23;7.55;;;;;;;5.44;85.81;98630.59;5012336;28;20034;-62
2021/05/13 04:10:11;;;;;;;9.98;7.05;;;;;;;5.69;84.46;98638.47;5012037;28;20440;-62
2021/05/13 04:12:39;;;;;;;9.63;5.70;;;;;;;5.40;86.06;98632.91;5012778;28;20040;-62
2021/05/13 04:15:08;;;;;;;7.72;5.70;;;;;;;5.58;86.46;98633.91;5013563;28;20485;-62
2021/05/13 04:17:33;;;;;;;8.48;5.90;;;;;;;6.15;84.24;98634.38;5016513;28;20022;-62
2021/05/13 04:19:58;;;;;;;10.77;5.57;;;;;;;6.21;82.43;98620.13;4998811;28;20072;-62
2021/05/13 04:22:25;;;;;;;7.93;5.35;;;;;;;7.02;78.99;98631.06;5015861;28;20072;-61
2021/05/13 04:24:50;;;;;;;8.25;5.15;;;;;;;8.56;73.81;98623.22;5016219;28;20396;-62
2021/05/13 04:27:15;;;;;;;8.32;4.97;;;;;;;9.89;67.44;98624.91;5015806;28;20046;-62
2021/05/13 04:29:41;;;;;;;7.32;3.85;;;;;;;10.80;65.89;98629.44;5016194;28;20464;-61
2021/05/13 04:32:06;;;;;;;6.25;3.70;;;;;;;11.69;60.33;98632.28;5015853;28;20034;-62
2021/05/13 04:34:32;;;;;;;5.13;3.58;;;;;;;12.16;58.52;98634.00;5016287;28;20439;-62
2021/05/13 04:36:57;;;;;;;5.18;3.10;;;;;;;13.04;55.42;98633.69;5015710;28;20034;-60
2021/05/13 04:39:23;;;;;;;6.75;3.30;;;;;;;11.06;60.57;98635.75;5016024;28;20461;-60
2021/05/13 04:41:50;;;;;;;5.38;3.60;;;;;;;10.13;65.90;98639.59;5015698;28;20037;-60
2021/05/13 04:44:16;;;;;;;6.60;3.58;;;;;;;11.48;60.72;98631.38;5015887;28;20022;-60
2021/05/13 04:46:41;;;;;;;6.35;3.72;;;;;;;12.03;59.48;98629.94;5015624;28;20049;-62
2021/05/13 04:51:35;;;;;;;5.63;3.20;;;;;;;14.53;50.67;98630.22;5015515;28;20076;-61
2021/05/13 04:54:00;;;;;;;4.05;2.90;;;;;;;15.87;46.79;98624.97;5015825;28;20414;-61
2021/05/13 04:56:26;;;;;;;5.53;3.35;;;;;;;16.05;46.56;98621.50;5015581;28;20065;-61
2021/05/13 04:58:51;;;;;;;7.78;3.00;;;;;;;15.98;45.70;98614.84;5015937;28;20026;-61
2021/05/13 05:01:17;;;;;;;5.63;3.30;;;;;;;13.51;52.67;98610.94;4997787;28;20049;-61
2021/05/13 05:03:42;;;;;;;5.43;3.10;;;;;;;11.54;60.50;98609.69;5015760;28;20026;-62
2021/05/13 05:06:10;;;;;;;7.82;2.97;;;;;;;12.06;59.22;98602.56;5030640;28;20030;-62
2021/05/13 05:08:35;;;;;;;6.63;3.28;;;;;;;13.92;53.90;98602.63;5015343;28;20046;-61
2021/05/13 05:11:00;;;;;;;5.07;2.83;;;;;;;13.56;55.23;98610.09;5014962;28;20151;-62
2021/05/13 05:13:26;;;;;;;4.40;2.90;;;;;;;12.43;58.69;98606.84;5030662;28;20053;-61
2021/05/13 05:15:52;;;;;;;6.10;3.40;;;;;;;13.56;56.43;98610.09;5015159;28;20038;-61
2021/05/13 05:18:21;;;;;;;6.80;3.00;;;;;;;16.57;47.55;98611.47;5015504;28;20428;-61
2021/05/13 05:20:47;;;;;;;5.60;2.97;;;;;;;17.54;44.99;98610.75;4997455;28;20048;-61
2021/05/13 05:23:13;;;;;;;6.30;3.10;;;;;;;16.64;45.20;98618.38;5015251;28;20022;-62
2021/05/13 05:25:38;;;;;;;4.70;2.90;;;;;;;17.48;43.58;98615.47;5014468;28;20092;-61
2021/05/13 05:28:04;;;;;;;4.28;2.90;;;;;;;18.13;41.79;98621.69;4996883;28;20152;-61
2021/05/13 05:30:33;;;;;;;7.30;2.90;;;;;;;18.12;41.68;98620.88;5014781;28;20049;-61
2021/05/13 05:33:02;;;;;;;4.25;2.72;;;;;;;18.37;41.34;98615.94;5015176;28;20080;-62
2021/05/13 05:35:27;;;;;;;5.70;2.77;;;;;;;19.12;40.04;98615.13;5014731;28;20065;-62
2021/05/13 05:37:54;;;;;;;6.03;2.78;;;;;;;18.70;41.29;98617.28;5030322;28;20465;-62
2021/05/13 05:40:20;;;;;;;4.50;2.53;;;;;;;18.65;40.98;98616.63;5014344;28;20448;-62
2021/05/13 05:42:45;;;;;;;4.95;2.50;;;;;;;17.91;43.43;98608.91;5015112;28;20066;-62
2021/05/13 05:45:11;;;;;;;3.70;2.40;;;;;;;18.41;41.99;98617.75;5014566;28;20026;-62
2021/05/13 05:47:37;;;;;;;5.95;2.70;;;;;;;19.63;39.18;98612.09;5014955;28;20081;-62
2021/05/13 05:50:03;;;;;;;4.50;2.58;;;;;;;19.61;39.21;98615.09;5014415;28;20396;-62
2021/05/13 05:52:28;;;;;;;4.97;2.78;;;;;;;19.53;39.64;98616.69;5014713;28;20925;-62
2021/05/13 05:54:55;;;;;;;5.47;3.15;;;;;;;20.57;37.33;98609.75;5013728;28;20026;-62
2021/05/13 05:57:21;;;;;;;6.28;3.08;;;;;;;18.75;40.72;98609.06;5014226;28;20061;-62
2021/05/13 05:59:46;;;;;;;6.00;3.30;;;;;;;18.58;41.94;98610.84;5029633;28;20457;-62
2021/05/13 06:02:12;;;;;;;7.53;3.85;;;;;;;19.64;39.61;98613.66;5014174;28;20068;-62
2021/05/13 06:04:37;;;;;;;6.18;3.50;;;;;;;20.34;38.16;98620.75;5014559;28;20029;-62
2021/05/13 06:07:02;;;;;;;7.22;3.70;;;;;;;20.00;38.43;98622.38;5014004;28;20050;-62
2021/05/13 06:09:28;;;;;;;6.97;3.50;;;;;;;21.41;36.15;98618.25;5014266;28;20112;-62
2021/05/13 06:11:53;;;;;;;6.50;3.65;;;;;;;21.26;36.67;98612.22;5013845;28;20397;-62
2021/05/13 06:14:19;;;;;;;6.80;3.75;;;;;;;21.18;36.88;98613.06;5014312;28;20033;-61
2021/05/13 06:16:44;;;;;;;6.93;3.75;;;;;;;21.87;35.51;98613.81;5013827;28;20034;-62
2021/05/13 06:19:09;;;;;;;7.50;3.90;;;;;;;21.70;35.52;98612.81;5014174;28;20029;-62
2021/05/13 06:21:38;;;;;;;7.70;3.60;;;;;;;21.27;37.33;98613.03;5013850;28;20045;-62
2021/05/13 06:24:08;;;;;;;5.90;3.70;;;;;;;21.37;36.25;98620.00;5029135;28;20026;-62
2021/05/13 06:26:33;;;;;;;;;;;;;;;21.51;36.56;98623.34;5014273;28;20045;-62
2021/05/13 06:28:59;;;;;;;7.20;4.00;;;;;;;20.82;38.10;98616.25;5014324;28;19913;-62
2021/05/13 06:31:24;;;;;;;5.95;4.07;;;;;;;20.86;38.28;98615.25;5013586;28;20038;-62
2021/05/13 06:33:50;;;;;;;6.95;4.57;;;;;;;21.01;37.97;98621.28;5014127;28;20030;-62
2021/05/13 06:36:15;;;;;;;8.32;5.00;;;;;;;22.47;35.36;98620.72;5013550;28;20392;-62
2021/05/13 06:38:41;;;;;;;7.97;5.30;;;;;;;20.71;39.63;98614.97;4996075;28;20111;-62
2021/05/13 06:41:09;;;;;;;7.97;6.00;;;;;;;21.03;39.14;98613.59;5012458;28;20389;-62
2021/05/13 06:43:34;;;;;;;8.38;6.20;;;;;;;21.32;38.47;98604.66;5013844;28;20022;-62
2021/05/13 06:46:00;;;;;;;7.57;6.00;;;;;;;20.69;40.68;98607.13;4995880;28;20092;-62
2021/05/13 06:48:25;;;;;;;9.93;6.60;;;;;;;21.17;38.57;98608.75;5013800;28;20068;-62
2021/05/13 06:50:51;;;;;;;8.35;5.80;;;;;;;22.17;36.99;98607.16;5013138;28;20342;-62
2021/05/13 06:53:16;;;;;;;7.57;5.75;;;;;;;23.61;33.91;98607.34;5013973;28;20029;-62
2021/05/13 06:55:42;;;;;;;6.85;5.75;;;;;;;21.04;38.77;98599.66;5013429;28;20121;-62
2021/05/13 06:58:08;;;;;;;8.07;6.13;;;;;;;19.87;41.29;98601.59;5013786;28;20413;-62
2021/05/13 07:00:34;;;;;;;14.13;6.85;;;;;;;17.56;46.69;98584.97;5013318;28;20049;-62
2021/05/13 07:02:59;;;;;;;9.10;6.93;;;;;;;16.81;50.14;98589.69;5013476;28;20026;-62
2021/05/13 07:05:24;;;;;;;8.30;7.10;;;;;;;17.13;48.52;98584.50;5011793;28;20046;-62
2021/05/13 07:07:50;;;;;;;9.90;7.30;;;;;;;17.09;49.11;98578.88;5013621;28;20030;-62
2021/05/13 07:10:15;;;;;;;9.98;7.20;;;;;;;18.23;45.89;98584.28;5012925;28;20041;-62
2021/05/13 07:12:41;;;;;;;9.82;6.85;;;;;;;19.02;44.88;98588.25;5013465;28;20084;-62
2021/05/13 07:15:07;;;;;;;10.45;6.90;;;;;;;20.13;41.47;98585.25;5012969;28;20600;-62
2021/05/13 07:17:33;;;;;;;9.20;7.35;;;;;;;18.94;44.48;98587.09;5013254;28;20034;-62
2021/05/13 07:19:58;;;;;;;10.90;6.65;;;;;;;21.37;39.98;98587.31;5013276;28;20037;-62
2021/05/13 07:22:23;;;;;;;10.45;6.57;;;;;;;21.39;39.24;98587.81;5012914;28;20030;-62
2021/05/13 07:24:49;;;;;;;8.90;6.25;;;;;;;22.57;36.95;98594.94;5013505;28;20389;-62
2021/05/13 07:27:15;;;;;;;8.18;6.43;;;;;;;21.95;37.98;98588.41;4995284;28;20037;-61
2021/05/13 07:29:40;;;;;;;7.90;6.38;;;;;;;22.41;37.38;98594.75;5013266;28;20069;-61
2021/05/13 07:32:06;;;;;;;9.77;6.18;;;;;;;22.24;37.53;98590.28;4995137;28;20042;-61
2021/05/13 07:34:31;;;;;;;7.18;5.88;;;;;;;22.79;37.17;98593.75;5013207;28;20026;-62
2021/05/13 07:36:57;;;;;;;7.25;5.65;;;;;;;23.59;35.36;98593.22;5027969;28;20111;-62
2021/05/13 07:39:22;;;;;;;7.90;5.90;;;;;;;22.60;37.06;98591.53;5013215;28;20424;-62
2021/05/13 07:41:48;;;;;;;10.02;5.97;;;;;;;23.69;35.24;98590.00;4994950;28;20038;-62
2021/05/13 07:44:13;;;;;;;7.40;5.50;;;;;;;23.97;34.36;98585.75;4995484;28;20452;-62
2021/05/13 07:46:40;;;;;;;8.55;5.68;;;;;;;22.80;36.81;98584.41;5012675;28;20034;-62
2021/05/13 07:49:07;;;;;;;11.98;5.50;;;;;;;22.89;37.19;98582.38;5013017;28;20464;-62
2021/05/13 07:51:32;;;;;;;7.80;5.55;;;;;;;22.81;36.76;98581.34;5016313;28;20504;-62
2021/05/13 07:53:58;;;;;;;7.22;5.43;;;;;;;22.52;37.51;98579.56;5016877;28;20021;-61
2021/05/13 07:56:23;;;;;;;8.05;5.70;;;;;;;23.12;36.65;98573.75;5016646;28;20097;-62
2021/05/13 07:58:49;;;;;;;7.93;5.97;;;;;;;24.05;35.11;98576.59;5032192;28;20026;-62
2021/05/13 08:01:14;;;;;;;9.00;6.22;;;;;;;22.98;36.50;98566.69;5016437;28;20038;-62
2021/05/13 08:03:40;;;;;;;7.13;5.97;;;;;;;22.56;37.77;98566.00;5016765;28;20061;-62
2021/05/13 08:06:05;;;;;;;10.52;6.18;;;;;;;22.18;38.68;98562.34;5015992;28;20030;-62
2021/05/13 08:08:30;;;;;;;8.65;6.45;;;;;;;22.77;38.15;98564.03;5016515;28;20108;-62
2021/05/13 08:10:56;;;;;;;7.97;6.68;;;;;;;22.54;38.13;98560.91;5016313;28;20038;-62
2021/05/13 08:13:21;;;;;;;12.70;6.88;;;;;;;21.09;42.64;98563.25;5016730;28;20037;-62
2021/05/13 08:15:47;;;;;;;9.80;7.13;;;;;;;22.42;39.14;98554.63;5016150;28;20038;-61
2021/05/13 08:18:12;;;;;;;9.70;6.78;;;;;;;22.70;38.78;98555.59;5016437;28;20435;-61
2021/05/13 08:20:38;;;;;;;10.98;7.28;;;;;;;23.45;36.77;98555.28;5016165;28;20041;-61
2021/05/13 08:23:03;;;;;;;8.27;6.57;;;;;;;22.79;36.48;98552.75;5031565;28;20022;-61
2021/05/13 08:25:28;;;;;;;10.00;6.28;;;;;;;22.95;36.05;98542.75;5016112;28;20034;-61
2021/05/13 08:27:54;;;;;;;9.95;6.07;;;;;;;23.04;36.47;98546.19;5016427;28;20022;-61
2021/05/13 08:30:20;;;;;;;10.20;6.63;;;;;;;21.47;40.84;98537.91;5015841;28;20061;-61
2021/05/13 08:32:45;;;;;;;9.82;6.95;;;;;;;20.22;43.46;98542.53;5031340;28;20100;-61
2021/05/13 08:35:11;;;;;;;9.80;6.30;;;;;;;20.65;41.64;98535.41;5016101;28;20025;-62
2021/05/13 08:37:37;;;;;;;8.13;5.45;;;;;;;21.15;39.52;98540.16;5016401;28;20058;-64
2021/05/13 08:40:04;;;;;;;11.02;5.07;;;;;;;22.02;34.95;98539.56;5015850;28;20022;-63
2021/05/13 08:42:29;;;;;;;11.05;5.60;;;;;;;20.35;38.96;98534.50;5016191;28;20025;-63
2021/05/13 08:44:54;;;;;;;11.82;6.45;;;;;;;21.37;40.53;98536.34;4998631;28;20385;-63
2021/05/13 08:47:20;;;;;;;9.63;6.45;;;;;;;23.22;37.59;98541.28;5014379;28;20484;-63
2021/05/13 08:49:45;;;;;;;6.97;5.75;;;;;;;23.35;37.26;98539.34;5015872;28;20018;-63
2021/05/13 08:52:12;;;;;;;8.77;4.72;;;;;;;23.34;34.30;98537.75;5015549;28;20037;-63
2021/05/13 08:54:55;;;;;;;5.95;2.92;;;;;;;22.47;31.85;98532.56;4997870;28;20030;-63
2021/05/13 08:57:20;;;;;;;7.70;2.75;;;;;;;21.23;31.96;98517.50;5030569;28;20042;-63
2021/05/13 08:59:46;;;;;;;8.43;1.90;;;;;;;19.58;34.22;98524.13;5014621;28;20029;-63
2021/05/13 09:02:11;;;;;;;7.10;2.55;;;;;;;18.59;35.27;98526.38;5015018;28;20081;-63
2021/05/13 09:04:38;;;;;;;9.05;2.92;;;;;;;20.56;33.52;98519.09;5015852;28;20022;-63
2021/05/13 09:07:15;;;;;;;6.38;2.90;;;;;;;21.17;33.17;98526.19;4997561;28;20042;-63
2021/05/13 09:10:08;;;;;;;5.95;2.58;;;;;;;19.43;36.06;98516.44;5015520;28;20374;-63
2021/05/13 09:12:39;;;;;;;8.30;2.33;;;;;;;19.73;35.31;98509.28;5015596;28;20069;-63
2021/05/13 09:15:20;;;;;;;4.72;2.00;;;;;;;18.93;34.50;98519.53;5015075;28;20076;-63
2021/05/13 09:18:01;;;;;;;8.15;2.20;;;;;;;18.02;37.86;98504.53;5015622;28;20040;-63
2021/05/13 09:20:28;;;;;;;6.00;2.10;;;;;;;19.92;34.02;98506.25;5015003;28;20084;-63
2021/05/13 09:23:11;;;;;;;6.43;2.40;;;;;;;19.27;34.21;98507.16;5015376;28;20388;-64
2021/05/13 09:25:37;;;;;;;10.30;2.28;;;;;;;19.80;33.66;98498.75;5015080;28;20034;-63
2021/05/13 09:28:05;;;;;;;8.60;2.40;;;;;;;21.65;30.43;98508.59;4997805;28;20026;-63
2021/05/13 09:30:31;;;;;;;6.82;2.40;;;;;;;20.33;32.97;98502.16;4997243;28;20469;-63
2021/05/13 09:32:58;;;;;;;13.07;2.78;;;;;;;21.64;29.26;98494.16;5030536;28;20021;-64
2021/05/13 09:35:34;;;;;;;10.65;2.70;;;;;;;22.65;27.48;98501.19;5014786;28;20033;-63
2021/05/13 09:38:04;;;;;;;8.60;2.30;;;;;;;22.80;28.96;98500.50;5015111;28;20022;-63
2021/05/13 09:40:32;;;;;;;10.00;2.50;;;;;;;22.16;27.75;98496.38;5014770;28;20108;-63
2021/05/13 09:43:15;;;;;;;6.68;2.20;;;;;;;20.83;27.14;98490.63;5015083;28;20044;-63
2021/05/13 09:45:47;;;;;;;12.35;2.30;;;;;;;20.60;30.02;98481.16;5014493;28;20041;-63
2021/05/13 09:48:41;;;;;;;7.18;2.50;;;;;;;19.48;31.53;98482.88;5014969;28;20026;-63
2021/05/13 09:51:28;;;;;;;9.32;2.88;;;;;;;20.48;31.21;98485.31;5014547;28;20404;-62
2021/05/13 09:54:03;;;;;;;8.15;2.28;;;;;;;20.20;29.62;98484.13;5014777;28;20362;-62
2021/05/13 09:56:29;;;;;;;5.63;1.75;;;;;;;21.73;24.24;98483.97;5014307;28;20521;-63
2021/05/13 09:58:55;;;;;;;5.60;1.88;;;;;;;23.03;24.78;98480.94;5014688;28;20034;-63
2021/05/13 10:01:20;;;;;;;6.82;2.00;;;;;;;23.53;24.14;98484.38;5014467;28;20041;-63
2021/05/13 10:03:46;;;;;;;5.72;1.88;;;;;;;22.13;25.14;98479.91;5014555;28;20056;-63
2021/05/13 10:06:12;;;;;;;5.35;2.28;;;;;;;21.54;25.34;98475.44;5013702;28;20077;-63
2021/05/13 10:08:46;;;;;;;5.70;2.00;;;;;;;20.54;25.88;98471.50;5014333;28;20419;-63
2021/05/13 10:11:14;;;;;;;6.22;2.10;;;;;;;19.45;28.43;98470.75;5014147;28;20046;-63
2021/05/13 10:13:39;;;;;;;7.72;2.35;;;;;;;19.72;29.81;98469.66;5012776;28;20045;-63
2021/05/13 10:16:05;;;;;;;6.25;2.30;;;;;;;19.36;29.95;98478.06;5013873;28;20400;-63
2021/05/13 10:18:36;;;;;;;5.55;1.83;;;;;;;19.75;30.60;98466.28;5014388;28;20033;-63
2021/05/13 10:21:19;;;;;;;7.00;2.10;;;;;;;19.04;31.83;98465.72;5013817;28;20096;-63
2021/05/13 10:23:45;;;;;;;6.43;2.10;;;;;;;19.24;30.03;98470.53;5014412;28;20032;-63
2021/05/13 10:26:41;;;;;;;5.80;2.00;;;;;;;19.90;30.53;98467.69;4996338;28;20030;-63
2021/05/13 10:29:19;;;;;;;7.85;2.20;;;;;;;21.07;28.24;98462.00;5014372;28;20080;-63
2021/05/13 10:31:44;;;;;;;8.70;2.55;;;;;;;18.45;32.06;98464.09;5013559;28;20057;-63
2021/05/13 10:34:10;;;;;;;7.47;1.90;;;;;;;20.16;30.08;98451.31;5014127;28;20042;-63
2021/05/13 10:36:35;;;;;;;8.15;2.10;;;;;;;19.67;29.27;98448.06;4996035;28;20389;-63
2021/05/13 10:39:10;;;;;;;4.13;1.60;;;;;;;19.30;29.20;98450.28;4996442;28;20018;-63
2021/05/13 10:41:43;;;;;;;8.63;2.42;;;;;;;21.02;27.70;98448.56;5012427;28;20045;-63
2021/05/13 10:44:08;;;;;;;5.57;1.80;;;;;;;20.88;26.66;98451.53;5014178;28;20032;-63
2021/05/13 10:46:34;;;;;;;6.85;1.70;;;;;;;18.30;28.95;98443.59;5013587;28;20133;-63
2021/05/13 10:49:15;;;;;;;6.43;1.70;;;;;;;19.52;27.30;98437.63;5012784;28;20051;-63
2021/05/13 10:51:44;;;;;;;4.80;2.00;;;;;;;20.20;29.08;98437.88;5013328;28;20034;-63
2021/05/13 10:54:29;;;;;;;6.63;1.90;;;;;;;20.51;26.69;98431.34;4996063;28;20030;-63
2021/05/13 10:57:20;;;;;;;4.05;1.85;;;;;;;21.37;27.24;98434.66;5012136;28;20497;-63
2021/05/13 11:00:05;;;;;;;4.65;1.88;;;;;;;22.71;25.36;98428.78;5012596;28;20172;-63
2021/05/13 11:02:44;;;;;;;6.35;1.80;;;;;;;22.30;25.20;98424.38;5013288;28;20374;-63
2021/05/13 11:05:32;;;;;;;7.03;1.90;;;;;;;21.57;29.91;98425.72;5013407;28;20026;-63
2021/05/13 11:08:25;;;;;;;6.35;2.15;;;;;;;21.12;31.42;98420.94;5013465;28;20030;-63
2021/05/13 11:10:59;;;;;;;6.25;2.00;;;;;;;21.16;31.47;98427.31;5010184;28;20038;-63
2021/05/13 11:13:47;;;;;;;5.40;1.90;;;;;;;21.07;32.01;98412.97;5013698;28;20026;-63
2021/05/13 11:16:51;;;;;;;3.45;1.45;;;;;;;21.14;30.64;98418.66;5013084;28;20038;-63
2021/05/13 11:19:21;;;;;;;7.95;1.95;;;;;;;21.19;31.63;98418.47;5013459;28;20113;-63
2021/05/13 11:22:01;;;;;;;4.75;1.90;;;;;;;21.01;31.75;98417.00;5013015;28;20404;-63
2021/05/13 11:24:39;;;;;;;7.20;2.03;;;;;;;21.22;31.97;98419.75;4995682;28;20022;-63
2021/05/13 11:27:06;;;;;;;6.38;2.15;;;;;;;20.68;34.69;98417.69;5012960;28;20467;-63
2021/05/13 11:29:50;;;;;;;7.00;2.10;;;;;;;20.36;35.43;98410.91;4995469;28;20018;-63
2021/05/13 11:32:16;;;;;;;7.28;2.25;;;;;;;19.96;36.47;98411.22;4995256;28;20033;-63
2021/05/13 11:34:45;;;;;;;5.82;2.13;;;;;;;20.46;35.52;98416.78;5013156;28;20095;-63
2021/05/13 11:37:29;;;;;;;7.35;2.30;;;;;;;20.70;34.30;98406.47;4995037;28;20049;-63
2021/05/13 11:39:55;;;;;;;7.60;2.30;;;;;;;20.95;34.72;98404.72;5012041;28;20156;-63